Time;durP1;ratioP1;P1;durP2;ratioP2;P2;SDS_P1;SDS_P2;PMS_P1;PMS_P2;Temp;Humidity;BMP_temperature;BMP_pressure;BME280_temperature;BME280_humidity;BME280_pressure;Samples;Min_cycle;Max_cycle;Signal;HPM_P1;HPM_P2
2021/01/01 00:02:23;;;;;;;23.08;15.35;;;;;;;2.15;100.00;99589.69;5240471;28;20029;-81
2021/01/01 00:04:53;;;;;;;21.80;14.52;;;;;;;2.22;100.00;99580.94;5241423;28;20382;-82
2021/01/01 00:07:23;;;;;;;23.42;14.30;;;;;;;2.26;100.00;99577.44;5242270;28;20025;-82
2021/01/01 00:09:53;;;;;;;20.70;13.73;;;;;;;2.13;100.00;99578.56;5246928;28;20031;-82
2021/01/01 00:12:24;;;;;;;20.98;14.02;;;;;;;2.30;100.00;99585.06;5242495;28;20024;-82
2021/01/01 00:14:58;;;;;;;20.55;13.50;;;;;;;2.22;100.00;99580.94;5242250;28;20163;-81
2021/01/01 00:17:31;;;;;;;21.67;13.23;;;;;;;2.13;100.00;99589.69;5242037;28;20391;-81
2021/01/01 00:20:02;;;;;;;19.70;12.98;;;;;;;2.48;100.00;99578.75;5241417;28;20066;-82
2021/01/01 00:22:33;;;;;;;19.20;12.00;;;;;;;2.51;100.00;99583.84;5241564;28;20481;-81
2021/01/01 00:25:04;;;;;;;19.52;12.05;;;;;;;2.61;100.00;99590.50;5242284;28;20158;-82
2021/01/01 00:27:35;;;;;;;18.35;12.10;;;;;;;2.52;100.00;99582.97;5240382;28;20074;-82
2021/01/01 00:30:06;;;;;;;19.60;12.93;;;;;;;2.17;100.00;99593.06;5241362;28;20522;-82
2021/01/01 00:32:40;;;;;;;19.40;13.52;;;;;;;2.40;100.00;99588.34;5236426;28;20025;-79
2021/01/01 00:35:11;;;;;;;22.77;14.50;;;;;;;2.18;100.00;99597.34;5242557;28;20111;-82
2021/01/01 00:37:42;;;;;;;26.65;16.35;;;;;;;1.97;100.00;99592.56;5240832;28;20187;-82
2021/01/01 00:40:12;;;;;;;25.25;17.55;;;;;;;2.01;100.00;99596.78;5248494;28;20390;-82
2021/01/01 00:42:43;;;;;;;26.17;17.70;;;;;;;1.83;100.00;99592.78;5241957;28;20042;-82
2021/01/01 00:45:14;;;;;;;30.48;19.52;;;;;;;1.75;100.00;99587.81;5232825;28;20056;-82
2021/01/01 00:47:48;;;;;;;25.58;16.50;;;;;;;1.80;100.00;99594.59;5221405;28;20021;-82
2021/01/01 00:50:18;;;;;;;23.88;16.02;;;;;;;1.87;100.00;99591.88;5221147;28;20033;-82
2021/01/01 00:52:49;;;;;;;25.77;15.60;;;;;;;1.88;100.00;99598.72;5220979;28;20028;-82
2021/01/01 00:55:19;;;;;;;23.13;15.27;;;;;;;1.95;100.00;99589.16;5220212;28;20039;-82
2021/01/01 00:57:50;;;;;;;24.73;15.25;;;;;;;2.22;100.00;99592.13;5219045;28;20028;-79
2021/01/01 01:00:20;;;;;;;25.50;15.80;;;;;;;2.13;100.00;99591.44;5231183;28;20039;-81
2021/01/01 01:02:50;;;;;;;25.95;16.52;;;;;;;1.82;100.00;99596.22;5241344;28;20021;-81
2021/01/01 01:05:21;;;;;;;25.77;16.67;;;;;;;1.77;100.00;99596.34;5241709;28;20054;-80
2021/01/01 01:07:51;;;;;;;25.80;17.00;;;;;;;1.83;100.00;99603.09;5243092;28;20028;-82
2021/01/01 01:10:21;;;;;;;24.42;16.00;;;;;;;1.89;100.00;99604.72;5249736;28;20043;-81
2021/01/01 01:12:52;;;;;;;27.05;17.85;;;;;;;1.61;100.00;99600.88;5243194;28;20140;-80
2021/01/01 01:15:22;;;;;;;29.15;18.02;;;;;;;1.67;100.00;99595.66;5245596;28;20028;-80
2021/01/01 01:17:52;;;;;;;24.58;16.63;;;;;;;1.73;100.00;99598.09;5245153;28;20035;-81
2021/01/01 01:20:22;;;;;;;29.70;18.30;;;;;;;1.79;100.00;99601.44;5246162;28;20146;-81
2021/01/01 01:22:53;;;;;;;27.73;17.27;;;;;;;1.83;100.00;99603.09;5244917;28;20028;-80
2021/01/01 01:25:23;;;;;;;26.42;16.67;;;;;;;1.62;100.00;99609.47;5245381;28;20525;-80
2021/01/01 01:27:53;;;;;;;26.58;16.60;;;;;;;1.58;100.00;99616.38;5245711;28;20486;-80
2021/01/01 01:30:23;;;;;;;25.67;16.30;;;;;;;1.61;100.00;99612.91;5245360;28;20254;-80
2021/01/01 01:32:54;;;;;;;27.02;16.55;;;;;;;1.46;100.00;99603.72;5230915;28;20229;-80
2021/01/01 01:35:24;;;;;;;25.60;17.27;;;;;;;1.40;100.00;99605.50;5243353;28;20406;-81
2021/01/01 01:37:54;;;;;;;27.20;17.90;;;;;;;1.37;100.00;99613.28;5244401;28;20024;-80
2021/01/01 01:40:26;;;;;;;26.65;17.65;;;;;;;1.42;100.00;99620.03;5252212;28;20128;-80
2021/01/01 01:42:56;;;;;;;28.08;17.20;;;;;;;1.51;100.00;99607.06;5244427;28;20078;-80
2021/01/01 01:45:27;;;;;;;28.25;17.63;;;;;;;1.46;100.00;99613.13;5245627;28;20074;-80
2021/01/01 01:47:59;;;;;;;25.35;16.75;;;;;;;1.49;100.00;99613.09;5244205;28;20016;-80
2021/01/01 01:50:30;;;;;;;25.08;16.27;;;;;;;1.56;100.00;99615.53;5245491;28;20467;-81
2021/01/01 01:53:01;;;;;;;29.40;16.92;;;;;;;1.50;100.00;99618.22;5247097;28;20032;-80
2021/01/01 01:55:31;;;;;;;28.92;16.67;;;;;;;1.37;100.00;99610.72;5244700;28;20024;-82
2021/01/01 01:58:02;;;;;;;27.25;16.75;;;;;;;1.32;100.00;99608.19;5243019;28;20379;-81
2021/01/01 02:00:57;;;;;;;24.95;16.35;;;;;;;1.32;100.00;99615.91;5245034;28;20448;-81
2021/01/01 02:03:28;;;;;;;23.33;15.18;;;;;;;1.59;100.00;99617.22;5243832;28;20089;-80
2021/01/01 02:05:59;;;;;;;24.40;15.48;;;;;;;1.56;100.00;99625.84;5245494;28;20020;-80
2021/01/01 02:08:30;;;;;;;25.90;15.07;;;;;;;1.55;100.00;99616.41;5245171;28;20157;-80
2021/01/01 02:11:00;;;;;;;21.35;14.50;;;;;;;1.47;100.00;99620.84;5249433;28;20530;-81
2021/01/01 02:13:31;;;;;;;22.98;15.45;;;;;;;1.32;100.00;99623.63;5245136;28;20028;-80
2021/01/01 02:16:04;;;;;;;24.30;15.65;;;;;;;1.21;100.00;99628.06;5245606;28;20043;-80
2021/01/01 02:18:35;;;;;;;25.73;15.52;;;;;;;1.22;100.00;99634.91;5240732;28;20025;-80
2021/01/01 02:21:07;;;;;;;24.40;15.48;;;;;;;1.25;100.00;99627.16;5236881;28;20024;-80
2021/01/01 02:23:37;;;;;;;26.13;16.33;;;;;;;1.29;100.00;99633.97;5242432;28;20091;-81
2021/01/01 02:26:08;;;;;;;26.85;16.08;;;;;;;1.27;100.00;99634.84;5243390;28;20024;-81
2021/01/01 02:28:38;;;;;;;27.67;17.40;;;;;;;1.16;100.00;99635.00;5244372;28;20024;-81
2021/01/01 02:31:08;;;;;;;26.17;16.13;;;;;;;1.20;100.00;99628.94;5243438;28;20073;-80
2021/01/01 02:33:39;;;;;;;25.98;16.60;;;;;;;1.08;100.00;99633.41;5244875;28;20112;-81
2021/01/01 02:36:10;;;;;;;27.15;17.55;;;;;;;1.12;100.00;99629.91;5243299;28;20055;-81
2021/01/01 02:38:42;;;;;;;28.02;18.15;;;;;;;1.11;100.00;99634.22;5243884;28;20024;-81
2021/01/01 02:41:12;;;;;;;28.58;18.92;;;;;;;1.11;100.00;99636.78;5250776;28;20035;-80
2021/01/01 02:43:42;;;;;;;28.85;18.50;;;;;;;1.24;100.00;99648.59;5243944;28;20024;-80
2021/01/01 02:46:13;;;;;;;28.48;17.95;;;;;;;1.36;100.00;99643.28;5245266;28;20109;-81
2021/01/01 02:48:43;;;;;;;30.20;17.70;;;;;;;1.04;100.00;99640.28;5243175;28;20029;-81
2021/01/01 02:51:13;;;;;;;28.63;18.25;;;;;;;1.04;100.00;99642.88;5245055;28;20055;-81
2021/01/01 02:53:43;;;;;;;27.25;16.73;;;;;;;1.18;100.00;99637.53;5244389;28;20016;-80
2021/01/01 02:56:16;;;;;;;27.80;18.42;;;;;;;1.09;100.00;99641.09;5244592;28;20382;-80
2021/01/01 02:58:46;;;;;;;28.10;18.20;;;;;;;1.11;100.00;99639.38;5244037;28;20044;-80
2021/01/01 03:01:20;;;;;;;29.88;19.42;;;;;;;1.16;100.00;99647.88;5236235;28;20021;-80
2021/01/01 03:03:50;;;;;;;29.52;19.73;;;;;;;1.31;100.00;99642.53;5239337;28;20025;-80
2021/01/01 03:06:20;;;;;;;37.15;23.20;;;;;;;1.23;100.00;99644.31;5242937;28;20399;-80
2021/01/01 03:08:50;;;;;;;41.20;24.17;;;;;;;1.21;100.00;99640.94;5242258;28;20079;-81
2021/01/01 03:11:21;;;;;;;41.25;24.85;;;;;;;1.19;100.00;99647.81;5235257;28;20017;-80
2021/01/01 03:13:51;;;;;;;36.72;22.45;;;;;;;1.20;100.00;99644.38;5240019;28;20124;-80
2021/01/01 03:16:21;;;;;;;36.15;22.80;;;;;;;1.20;100.00;99639.22;5243931;28;20219;-80
2021/01/01 03:18:51;;;;;;;36.13;22.33;;;;;;;1.18;100.00;99640.09;5242828;28;20032;-81
2021/01/01 03:21:22;;;;;;;35.47;21.38;;;;;;;1.16;100.00;99642.72;5243492;28;20075;-80
2021/01/01 03:23:52;;;;;;;36.80;21.05;;;;;;;1.13;100.00;99637.63;5241231;28;20037;-80
2021/01/01 03:26:23;;;;;;;31.05;20.23;;;;;;;1.24;100.00;99640.88;5234034;28;20082;-80
2021/01/01 03:28:53;;;;;;;35.67;20.95;;;;;;;1.21;100.00;99640.09;5223156;28;20039;-80
2021/01/01 03:31:23;;;;;;;30.33;19.23;;;;;;;1.51;100.00;99634.50;5222948;28;20029;-80
2021/01/01 03:33:53;;;;;;;32.13;19.58;;;;;;;1.79;100.00;99636.66;5221765;28;20012;-81
2021/01/01 03:36:24;;;;;;;30.60;18.92;;;;;;;1.37;100.00;99639.00;5221089;28;20027;-80
2021/01/01 03:38:56;;;;;;;29.73;18.83;;;;;;;1.15;100.00;99635.88;5239556;28;20040;-80
2021/01/01 03:41:26;;;;;;;27.38;18.08;;;;;;;1.52;100.00;99641.34;5247792;28;20024;-80
2021/01/01 03:43:56;;;;;;;31.17;18.42;;;;;;;1.45;100.00;99640.59;5242629;28;20020;-80
2021/01/01 03:46:27;;;;;;;30.60;19.50;;;;;;;1.23;100.00;99649.47;5243715;28;20033;-80
2021/01/01 03:48:57;;;;;;;32.75;21.15;;;;;;;1.13;100.00;99645.34;5242233;28;20154;-80
2021/01/01 03:51:27;;;;;;;34.72;21.35;;;;;;;1.12;100.00;99646.22;5242149;28;20109;-80
2021/01/01 03:53:57;;;;;;;34.22;22.13;;;;;;;1.21;100.00;99646.06;5242602;28;20490;-80
2021/01/01 03:56:28;;;;;;;37.05;23.02;;;;;;;1.22;100.00;99639.22;5242994;28;20364;-80
2021/01/01 03:58:58;;;;;;;36.33;23.23;;;;;;;1.22;100.00;99646.94;5242321;28;20035;-82
2021/01/01 04:01:28;;;;;;;35.88;22.77;;;;;;;1.30;100.00;99640.81;5242864;28;20028;-82
2021/01/01 04:03:58;;;;;;;36.90;22.67;;;;;;;1.42;100.00;99639.78;5239993;28;20040;-82
2021/01/01 04:06:29;;;;;;;34.35;22.02;;;;;;;1.45;100.00;99640.59;5242848;28;20051;-82
2021/01/01 04:08:59;;;;;;;36.65;22.83;;;;;;;1.32;100.00;99644.22;5244342;28;20490;-82
2021/01/01 04:11:34;;;;;;;32.47;20.92;;;;;;;1.49;100.00;99636.25;5247678;28;20046;-82
2021/01/01 04:14:05;;;;;;;;;;;;;;;1.55;100.00;99639.59;5243347;28;20019;-81
2021/01/01 04:16:42;;;;;;;37.47;22.55;;;;;;;1.39;100.00;99645.81;5243091;28;19909;-82
2021/01/01 04:19:13;;;;;;;34.70;22.38;;;;;;;1.39;100.00;99645.00;5243081;28;20028;-80
2021/01/01 04:21:47;;;;;;;34.00;20.77;;;;;;;1.57;100.00;99645.56;5240943;28;20066;-82
2021/01/01 04:24:18;;;;;;;38.90;22.75;;;;;;;1.60;100.00;99645.50;5242218;28;20033;-81
2021/01/01 04:26:49;;;;;;;39.60;23.30;;;;;;;1.45;100.00;99650.91;5242883;28;20043;-81
2021/01/01 04:29:19;;;;;;;38.42;23.60;;;;;;;1.48;100.00;99648.28;5242865;28;20024;-82
2021/01/01 04:31:49;;;;;;;37.38;22.95;;;;;;;1.45;100.00;99650.03;5241517;28;20035;-83
2021/01/01 04:34:20;;;;;;;37.35;23.40;;;;;;;1.39;100.00;99648.41;5242344;28;20031;-81
2021/01/01 04:36:50;;;;;;;37.95;24.38;;;;;;;1.46;100.00;99654.31;5245932;28;20081;-81
2021/01/01 04:39:20;;;;;;;38.63;23.40;;;;;;;1.62;100.00;99654.09;5247906;28;20520;-82
2021/01/01 04:41:55;;;;;;;41.63;24.85;;;;;;;1.63;100.00;99652.34;5246017;28;20041;-82
2021/01/01 04:44:25;;;;;;;29.33;18.55;;;;;;;1.68;100.00;99656.56;5245633;28;20107;-81
2021/01/01 04:46:56;;;;;;;34.78;21.85;;;;;;;1.69;100.00;99658.25;5247457;28;20112;-81
2021/01/01 04:49:28;;;;;;;37.15;22.48;;;;;;;1.72;100.00;99655.63;5247920;28;20508;-82
2021/01/01 04:52:01;;;;;;;34.85;22.88;;;;;;;1.74;100.00;99658.19;5247587;28;20054;-81
2021/01/01 04:54:33;;;;;;;40.45;23.27;;;;;;;1.69;100.00;99655.69;5247502;28;20245;-81
2021/01/01 04:57:04;;;;;;;34.38;21.98;;;;;;;1.80;100.00;99653.81;5247457;28;20442;-81
2021/01/01 04:59:34;;;;;;;41.05;24.15;;;;;;;1.81;100.00;99655.50;5247500;28;20123;-81
2021/01/01 05:02:05;;;;;;;33.15;21.50;;;;;;;2.00;100.00;99651.75;5246025;28;20086;-82
2021/01/01 05:04:35;;;;;;;35.22;22.17;;;;;;;1.93;100.00;99651.00;5247628;28;20029;-83
2021/01/01 05:07:05;;;;;;;34.63;22.17;;;;;;;1.87;100.00;99663.13;5248208;28;20228;-81
2021/01/01 05:09:38;;;;;;;34.72;22.00;;;;;;;1.78;100.00;99656.38;5252629;28;20028;-82
2021/01/01 05:12:09;;;;;;;35.45;22.75;;;;;;;1.67;100.00;99666.88;5247069;28;20029;-81
2021/01/01 05:14:40;;;;;;;34.22;22.23;;;;;;;1.56;100.00;99668.78;5247527;28;20056;-82
2021/01/01 05:17:10;;;;;;;36.17;22.88;;;;;;;1.50;100.00;99667.13;5249071;28;20673;-83
2021/01/01 05:19:42;;;;;;;39.90;24.50;;;;;;;1.49;100.00;99673.16;5247219;28;20025;-80
2021/01/01 05:22:12;;;;;;;37.47;22.15;;;;;;;1.66;100.00;99670.31;5246686;28;20469;-81
2021/01/01 05:24:44;;;;;;;34.25;22.55;;;;;;;1.75;100.00;99672.78;5246221;28;20085;-82
2021/01/01 05:27:16;;;;;;;37.28;22.52;;;;;;;1.59;100.00;99676.44;5247157;28;20578;-82
2021/01/01 05:29:57;;;;;;;39.22;22.67;;;;;;;1.45;100.00;99676.63;5247065;28;20429;-81
2021/01/01 05:32:29;;;;;;;34.88;22.10;;;;;;;1.49;100.00;99682.56;5247670;28;20025;-81
2021/01/01 05:34:59;;;;;;;34.47;21.35;;;;;;;1.65;100.00;99678.91;5247214;28;20028;-79
2021/01/01 05:37:32;;;;;;;38.58;21.83;;;;;;;1.58;100.00;99678.16;5246689;28;20278;-82
2021/01/01 05:40:10;;;;;;;34.97;21.27;;;;;;;1.45;100.00;99683.50;5249164;28;20279;-81
2021/01/01 05:42:41;;;;;;;31.15;20.73;;;;;;;1.47;100.00;99681.75;5246176;28;20016;-81
2021/01/01 05:45:18;;;;;;;35.10;21.90;;;;;;;1.34;100.00;99683.66;5247053;28;20094;-82
2021/01/01 05:48:03;;;;;;;36.03;22.15;;;;;;;1.50;100.00;99689.41;5244810;28;20016;-82
2021/01/01 05:50:34;;;;;;;34.13;19.98;;;;;;;1.79;100.00;99683.00;5246751;28;20095;-81
2021/01/01 05:53:13;;;;;;;32.30;20.08;;;;;;;1.65;100.00;99687.50;5246364;28;20024;-82
2021/01/01 05:55:45;;;;;;;31.55;19.80;;;;;;;1.60;100.00;99686.69;5247276;28;20375;-81
2021/01/01 05:58:20;;;;;;;34.85;20.20;;;;;;;1.57;100.00;99689.31;5245357;28;20024;-82
2021/01/01 06:00:56;;;;;;;31.20;20.30;;;;;;;1.44;100.00;99690.34;5245446;28;20078;-82
2021/01/01 06:03:29;;;;;;;33.67;20.80;;;;;;;1.30;100.00;99700.00;5244934;28;20589;-80
2021/01/01 06:06:04;;;;;;;32.38;19.83;;;;;;;1.34;100.00;99703.38;5244860;28;20032;-83
2021/01/01 06:08:34;;;;;;;;;;;;;;;1.41;100.00;99698.13;5246389;28;20032;-83
2021/01/01 06:11:06;;;;;;;33.83;20.63;;;;;;;1.45;100.00;99699.81;5245839;28;20370;-81
2021/01/01 06:13:36;;;;;;;33.88;21.38;;;;;;;1.39;100.00;99705.00;5243882;28;20024;-82
2021/01/01 06:16:09;;;;;;;33.55;20.75;;;;;;;1.33;100.00;99702.53;5245182;28;20494;-82
2021/01/01 06:18:46;;;;;;;33.58;20.80;;;;;;;1.40;100.00;99699.00;5244747;28;20046;-82
2021/01/01 06:21:32;;;;;;;31.33;20.42;;;;;;;1.36;100.00;99707.63;5244374;28;20028;-82
2021/01/01 06:24:05;;;;;;;33.78;20.35;;;;;;;1.40;100.00;99714.44;5244715;28;20368;-81
2021/01/01 06:26:36;;;;;;;32.42;20.02;;;;;;;1.38;100.00;99716.19;5243496;28;21656;-81
2021/01/01 06:29:08;;;;;;;34.67;20.20;;;;;;;1.34;100.00;99718.81;5244975;28;20099;-82
2021/01/01 06:31:41;;;;;;;29.40;18.85;;;;;;;1.39;100.00;99717.03;5244374;28;20028;-81
2021/01/01 06:34:30;;;;;;;34.13;20.45;;;;;;;1.22;100.00;99724.13;5244854;28;20108;-82
2021/01/01 06:37:00;;;;;;;31.35;19.48;;;;;;;1.12;100.00;99723.38;5243274;28;20378;-82
2021/01/01 06:39:42;;;;;;;36.78;21.50;;;;;;;1.08;100.00;99729.41;5251110;28;20015;-81
2021/01/01 06:42:13;;;;;;;31.70;19.95;;;;;;;1.13;100.00;99735.38;5245246;28;20020;-82
2021/01/01 06:44:43;;;;;;;29.13;18.35;;;;;;;1.10;100.00;99734.53;5248005;28;20036;-83
2021/01/01 06:47:42;;;;;;;31.33;19.65;;;;;;;1.04;100.00;99747.50;5248655;28;20293;-81
2021/01/01 06:50:29;;;;;;;30.42;19.80;;;;;;;1.10;100.00;99740.53;5248654;28;20051;-82
2021/01/01 06:53:08;;;;;;;29.67;19.25;;;;;;;1.09;100.00;99743.97;5244055;28;20020;-81
2021/01/01 06:55:43;;;;;;;36.35;19.95;;;;;;;1.00;100.00;99762.09;5243816;28;20078;-81
2021/01/01 06:58:23;;;;;;;29.20;17.92;;;;;;;0.97;100.00;99753.53;5235613;28;20048;-81
2021/01/01 07:00:55;;;;;;;32.50;19.73;;;;;;;1.00;100.00;99756.06;5241257;28;20024;-82
2021/01/01 07:03:29;;;;;;;35.10;21.00;;;;;;;1.05;100.00;99756.91;5243516;28;20417;-82
2021/01/01 07:05:59;;;;;;;30.30;18.97;;;;;;;1.09;100.00;99756.81;5243657;28;20107;-82
2021/01/01 07:08:39;;;;;;;32.20;19.17;;;;;;;1.10;100.00;99760.28;5244083;28;20535;-82
2021/01/01 07:11:09;;;;;;;33.05;19.13;;;;;;;0.93;100.00;99757.03;5247016;28;20287;-82
2021/01/01 07:13:45;;;;;;;32.17;19.58;;;;;;;1.01;100.00;99760.34;5243342;28;20475;-82
2021/01/01 07:16:20;;;;;;;28.98;17.88;;;;;;;0.90;100.00;99763.03;5242847;28;20036;-82
2021/01/01 07:18:52;;;;;;;24.38;16.58;;;;;;;0.99;100.00;99768.09;5243885;28;20203;-82
2021/01/01 07:21:22;;;;;;;26.02;16.60;;;;;;;0.66;100.00;99767.56;5243638;28;20510;-82
2021/01/01 07:23:53;;;;;;;26.35;16.98;;;;;;;0.71;100.00;99771.81;5243447;28;20030;-80
2021/01/01 07:26:30;;;;;;;29.27;17.67;;;;;;;0.76;100.00;99774.34;5244332;28;20067;-82
2021/01/01 07:29:03;;;;;;;27.63;17.33;;;;;;;0.85;100.00;99779.38;5244877;28;20490;-81
2021/01/01 07:31:33;;;;;;;27.33;17.27;;;;;;;0.60;100.00;99781.34;5243836;28;20028;-80
2021/01/01 07:34:08;;;;;;;27.45;16.38;;;;;;;0.53;100.00;99784.81;5248943;28;20016;-83
2021/01/01 07:36:38;;;;;;;25.17;15.82;;;;;;;0.53;100.00;99784.81;5242442;28;20127;-80
2021/01/01 07:39:09;;;;;;;26.65;17.17;;;;;;;0.60;100.00;99783.91;5247158;28;20103;-82
2021/01/01 07:41:39;;;;;;;29.60;18.10;;;;;;;0.73;100.00;99784.66;5245187;28;20116;-81
2021/01/01 07:44:09;;;;;;;29.40;16.98;;;;;;;0.80;100.00;99782.00;5243227;28;20348;-81
2021/01/01 07:46:40;;;;;;;30.25;18.13;;;;;;;0.80;100.00;99787.16;5241742;28;20078;-82
2021/01/01 07:49:10;;;;;;;31.63;17.67;;;;;;;0.92;100.00;99786.19;5244274;28;20030;-79
2021/01/01 07:51:40;;;;;;;28.45;16.35;;;;;;;0.93;100.00;99793.03;5245525;28;20028;-82
2021/01/01 07:54:10;;;;;;;26.80;16.85;;;;;;;1.13;100.00;99791.97;5244861;28;20033;-82
2021/01/01 07:56:41;;;;;;;27.48;16.60;;;;;;;1.01;100.00;99794.66;5245558;28;20504;-83
2021/01/01 07:59:11;;;;;;;26.40;16.20;;;;;;;1.01;100.00;99799.81;5243851;28;20032;-83
2021/01/01 08:01:41;;;;;;;25.25;16.63;;;;;;;1.03;100.00;99794.66;5243852;28;20047;-82
2021/01/01 08:04:16;;;;;;;27.80;17.13;;;;;;;1.03;100.00;99798.06;5244491;28;20528;-83
2021/01/01 08:06:47;;;;;;;30.23;17.08;;;;;;;1.14;100.00;99803.97;5245888;28;20542;-83
2021/01/01 08:09:17;;;;;;;25.45;16.08;;;;;;;1.08;100.00;99801.44;5249381;28;20116;-81
2021/01/01 08:11:48;;;;;;;27.48;16.52;;;;;;;1.11;100.00;99804.00;5246377;28;20066;-82
2021/01/01 08:14:19;;;;;;;26.08;16.45;;;;;;;1.32;100.00;99806.34;5247113;28;20087;-80
2021/01/01 08:16:50;;;;;;;23.60;15.55;;;;;;;1.20;100.00;99808.19;5247276;28;20024;-82
2021/01/01 08:19:23;;;;;;;29.92;16.42;;;;;;;0.98;100.00;99811.81;5245259;28;20032;-78
2021/01/01 08:22:06;;;;;;;27.77;17.05;;;;;;;1.20;100.00;99815.91;5242379;28;20039;-82
2021/01/01 08:24:41;;;;;;;26.25;16.50;;;;;;;1.22;100.00;99817.56;5243575;28;20043;-81
2021/01/01 08:27:12;;;;;;;26.58;16.33;;;;;;;1.35;100.00;99815.72;5243983;28;20035;-82
2021/01/01 08:29:44;;;;;;;29.23;17.15;;;;;;;1.22;100.00;99814.16;5244388;28;20028;-82
2021/01/01 08:32:16;;;;;;;26.88;16.60;;;;;;;1.43;100.00;99819.06;5244740;28;20043;-82
2021/01/01 08:34:50;;;;;;;27.15;16.55;;;;;;;1.50;100.00;99819.00;5243559;28;20035;-83
2021/01/01 08:37:22;;;;;;;26.35;15.73;;;;;;;1.61;100.00;99817.13;5244567;28;20274;-82
2021/01/01 08:40:09;;;;;;;24.40;16.38;;;;;;;1.50;100.00;99826.72;5247370;28;20024;-82
2021/01/01 08:42:40;;;;;;;24.80;15.90;;;;;;;1.63;100.00;99825.72;5242010;28;20028;-81
2021/01/01 08:45:11;;;;;;;25.67;15.50;;;;;;;1.67;100.00;99827.38;5243560;28;20028;-82
2021/01/01 08:47:46;;;;;;;22.30;14.68;;;;;;;1.39;100.00;99831.13;5244318;28;20024;-82
2021/01/01 08:50:22;;;;;;;28.20;16.42;;;;;;;1.44;100.00;99837.06;5244445;28;20027;-79
2021/01/01 08:53:03;;;;;;;25.05;15.60;;;;;;;1.65;100.00;99836.84;5243805;28;20047;-80
2021/01/01 08:55:33;;;;;;;26.00;16.17;;;;;;;1.67;100.00;99837.66;5244821;28;20081;-81
2021/01/01 08:58:30;;;;;;;27.50;16.83;;;;;;;1.76;100.00;99840.09;5245333;28;20375;-82
2021/01/01 09:01:16;;;;;;;25.60;15.80;;;;;;;1.80;100.00;99839.22;5242271;28;20040;-80
2021/01/01 09:03:46;;;;;;;28.75;16.58;;;;;;;1.91;100.00;99852.81;5243556;28;20028;-82
2021/01/01 09:06:17;;;;;;;27.75;16.35;;;;;;;1.78;100.00;99846.97;5241435;28;20028;-81
2021/01/01 09:09:03;;;;;;;25.45;16.58;;;;;;;1.86;100.00;99844.28;5243270;28;20441;-82
2021/01/01 09:11:33;;;;;;;23.73;16.23;;;;;;;2.22;100.00;99856.69;5243870;28;20407;-82
2021/01/01 09:14:05;;;;;;;24.38;15.88;;;;;;;2.24;100.00;99847.19;5242812;28;20059;-82
2021/01/01 09:16:35;;;;;;;25.13;16.20;;;;;;;2.13;100.00;99854.25;5242339;28;20029;-79
2021/01/01 09:19:09;;;;;;;25.73;16.67;;;;;;;2.12;100.00;99860.25;5242897;28;20042;-83
2021/01/01 09:21:39;;;;;;;27.27;17.02;;;;;;;2.27;100.00;99855.75;5240934;28;20050;-82
2021/01/01 09:24:10;;;;;;;26.38;16.92;;;;;;;2.78;100.00;99859.25;5242855;28;20025;-82
2021/01/01 09:26:40;;;;;;;23.98;16.13;;;;;;;2.80;100.00;99862.66;5243883;28;20056;-83
2021/01/01 09:29:11;;;;;;;22.42;15.23;;;;;;;2.66;100.00;99859.47;5247598;28;20255;-83
2021/01/01 09:31:45;;;;;;;24.40;15.65;;;;;;;2.80;100.00;99860.09;5248648;28;20036;-82
2021/01/01 09:34:17;;;;;;;25.02;15.93;;;;;;;2.89;100.00;99859.94;5239393;28;20020;-81
2021/01/01 09:36:47;;;;;;;25.70;16.25;;;;;;;2.82;100.00;99866.94;5237608;28;20056;-81
2021/01/01 09:39:17;;;;;;;24.77;16.17;;;;;;;2.80;100.00;99865.25;5240737;28;20424;-80
2021/01/01 09:41:48;;;;;;;23.08;15.70;;;;;;;2.86;100.00;99881.47;5241715;28;20486;-82
2021/01/01 09:44:18;;;;;;;24.90;16.23;;;;;;;2.75;100.00;99870.50;5240158;28;20028;-83
2021/01/01 09:46:49;;;;;;;26.38;15.73;;;;;;;2.91;100.00;99866.81;5237801;28;20055;-82
2021/01/01 09:49:20;;;;;;;23.85;16.10;;;;;;;3.00;100.00;99878.69;5233922;28;20532;-82
2021/01/01 09:51:50;;;;;;;24.20;15.68;;;;;;;2.94;100.00;99879.66;5235171;28;20032;-83
2021/01/01 09:54:20;;;;;;;24.15;16.60;;;;;;;2.89;100.00;99880.59;5237473;28;20012;-82
2021/01/01 09:56:50;;;;;;;27.67;16.85;;;;;;;2.90;100.00;99874.56;5236111;28;20153;-82
2021/01/01 09:59:21;;;;;;;24.35;16.02;;;;;;;3.21;100.00;99881.75;5233659;28;20664;-82
2021/01/01 10:01:51;;;;;;;24.23;15.75;;;;;;;3.36;100.00;99878.91;5237912;28;20386;-83
2021/01/01 10:04:21;;;;;;;25.90;15.65;;;;;;;3.32;100.00;99882.44;5227565;28;20055;-82
2021/01/01 10:06:51;;;;;;;23.52;15.35;;;;;;;3.38;100.00;99881.47;5241973;28;20101;-82
2021/01/01 10:09:22;;;;;;;23.63;15.07;;;;;;;3.57;100.00;99882.84;5236434;28;20044;-81
2021/01/01 10:11:54;;;;;;;23.13;15.43;;;;;;;3.62;100.00;99882.72;5244786;28;20027;-82
2021/01/01 10:14:25;;;;;;;24.38;16.02;;;;;;;3.69;100.00;99876.56;5247974;28;20033;-80
2021/01/01 10:16:55;;;;;;;23.40;15.48;;;;;;;4.08;100.00;99872.31;5246692;28;20077;-81
2021/01/01 10:19:25;;;;;;;23.55;16.17;;;;;;;4.14;100.00;99878.19;5248234;28;20652;-80
2021/01/01 10:21:55;;;;;;;22.92;15.65;;;;;;;3.94;100.00;99879.50;5248093;28;20025;-83
2021/01/01 10:24:26;;;;;;;30.67;18.73;;;;;;;4.14;100.00;99880.78;5247512;28;20479;-82
2021/01/01 10:26:56;;;;;;;26.00;15.95;;;;;;;4.09;100.00;99885.22;5249265;28;20028;-83
2021/01/01 10:29:26;;;;;;;26.15;17.10;;;;;;;3.89;100.00;99878.72;5250530;28;20044;-81
2021/01/01 10:32:10;;;;;;;25.88;16.60;;;;;;;4.19;100.00;99881.56;5245609;28;20384;-82
2021/01/01 10:34:42;;;;;;;21.67;14.43;;;;;;;4.25;100.00;99878.84;5244936;28;20028;-81
2021/01/01 10:37:13;;;;;;;24.83;16.08;;;;;;;4.26;100.00;99879.69;5244840;28;20584;-82
2021/01/01 10:39:43;;;;;;;24.90;16.88;;;;;;;3.96;100.00;99881.16;5250665;28;20040;-83
2021/01/01 10:42:13;;;;;;;31.63;17.85;;;;;;;3.96;100.00;99876.00;5245454;28;20027;-81
2021/01/01 10:44:44;;;;;;;27.15;17.05;;;;;;;3.94;100.00;99877.75;5245281;28;20032;-82
2021/01/01 10:47:14;;;;;;;25.92;16.48;;;;;;;4.17;100.00;99873.00;5244071;28;20032;-82
2021/01/01 10:49:44;;;;;;;26.98;16.83;;;;;;;4.56;100.00;99868.66;5244777;28;20067;-82
2021/01/01 10:52:14;;;;;;;25.33;16.25;;;;;;;4.60;100.00;99868.56;5236169;28;20430;-83
2021/01/01 10:54:45;;;;;;;24.02;15.52;;;;;;;4.76;100.00;99867.31;5244761;28;20055;-82
2021/01/01 10:57:15;;;;;;;25.42;15.23;;;;;;;4.86;100.00;99870.53;5245409;28;20028;-80
2021/01/01 10:59:45;;;;;;;24.38;15.07;;;;;;;4.72;100.00;99863.09;5246038;28;20031;-83
2021/01/01 11:02:15;;;;;;;23.38;15.48;;;;;;;4.73;100.00;99864.81;5247837;28;20463;-83
2021/01/01 11:04:46;;;;;;;22.33;14.77;;;;;;;4.78;100.00;99860.34;5248170;28;20059;-83
2021/01/01 11:07:16;;;;;;;24.73;15.48;;;;;;;4.64;100.00;99865.00;5244639;28;20051;-83
2021/01/01 11:09:46;;;;;;;24.92;16.10;;;;;;;4.78;100.00;99860.34;5255527;28;20027;-81
2021/01/01 11:12:16;;;;;;;25.60;15.52;;;;;;;4.93;100.00;99862.59;5247771;28;20020;-81
2021/01/01 12:20:35;;;;;;;9.60;1.83;;;;;;;6.22;81.33;99830.53;5218110;28;20021;-82
2021/01/01 12:25:26;;;;;;;5.30;1.60;;;;;;;6.09;78.39;99836.97;5231787;28;20447;-82
2021/01/01 12:28:01;;;;;;;6.07;1.75;;;;;;;5.94;81.05;99847.78;5234002;28;20035;-81
2021/01/01 12:30:32;;;;;;;4.00;1.63;;;;;;;6.02;80.86;99838.91;5231692;28;20100;-80
2021/01/01 12:33:03;;;;;;;4.22;1.85;;;;;;;5.88;80.89;99837.63;5240069;28;20075;-82
2021/01/01 12:35:35;;;;;;;5.40;1.85;;;;;;;6.02;80.89;99840.63;5235377;28;20478;-82
2021/01/01 12:38:08;;;;;;;4.43;1.70;;;;;;;6.11;80.59;99830.00;5233796;28;20029;-83
2021/01/01 12:40:38;;;;;;;5.82;2.42;;;;;;;6.06;80.29;99831.91;5234747;28;20032;-82
2021/01/01 12:43:10;;;;;;;5.55;2.42;;;;;;;6.13;80.88;99836.84;5239427;28;20294;-82
2021/01/01 12:45:41;;;;;;;5.55;2.13;;;;;;;5.94;80.58;99842.63;5232105;28;20025;-82
2021/01/01 12:48:12;;;;;;;7.43;3.83;;;;;;;5.93;80.81;99841.75;5232841;28;20036;-82
2021/01/01 12:50:42;;;;;;;9.05;5.07;;;;;;;5.98;81.28;99844.22;5235516;28;20028;-82